createdAt,value
2017-08-08T00:02:12.453Z,6.47
2017-08-08T00:04:40.832Z,5.33
2017-08-08T00:07:10.124Z,5.63
2017-08-08T00:09:41.076Z,5.57
2017-08-08T00:12:10.415Z,6.13
2017-08-08T00:14:41.052Z,5.47
2017-08-08T00:17:09.667Z,5.50
2017-08-08T00:19:40.229Z,6.20
2017-08-08T00:22:08.618Z,5.50
2017-08-08T00:24:37.052Z,4.97
2017-08-08T00:27:05.577Z,4.87
2017-08-08T00:29:33.929Z,4.90
2017-08-08T00:32:02.353Z,6.00
2017-08-08T00:34:31.512Z,4.70
2017-08-08T00:36:59.878Z,5.53
2017-08-08T00:39:28.261Z,5.47
2017-08-08T00:41:56.591Z,5.60
2017-08-08T00:44:25.748Z,4.90
2017-08-08T00:46:54.209Z,5.93
2017-08-08T00:49:22.705Z,5.53
2017-08-08T00:51:52.708Z,5.40
2017-08-08T00:54:23.067Z,5.37
2017-08-08T00:56:53.125Z,5.60
2017-08-08T00:59:23.435Z,4.97
2017-08-08T01:01:52.733Z,5.60
2017-08-08T01:04:21.615Z,4.50
2017-08-08T01:06:49.993Z,6.50
2017-08-08T01:09:19.154Z,5.03
2017-08-08T01:11:47.497Z,5.60
2017-08-08T01:14:15.954Z,6.27
2017-08-08T01:16:45.380Z,5.60
2017-08-08T01:19:14.783Z,5.17
2017-08-08T01:21:43.315Z,5.87
2017-08-08T01:24:11.716Z,6.57
2017-08-08T01:26:41.168Z,6.40
2017-08-08T01:29:09.704Z,5.33
2017-08-08T01:31:39.490Z,5.53
2017-08-08T01:34:07.912Z,4.83
2017-08-08T01:36:36.934Z,5.67
2017-08-08T01:39:05.276Z,6.17
2017-08-08T01:41:33.625Z,5.90
2017-08-08T01:44:01.999Z,6.63
2017-08-08T01:46:30.399Z,5.77
2017-08-08T01:48:58.818Z,5.73
2017-08-08T01:51:27.437Z,5.67
2017-08-08T01:53:56.052Z,6.77
2017-08-08T01:56:24.650Z,5.33
2017-08-08T01:58:53.176Z,5.93
2017-08-08T02:01:21.572Z,5.97
2017-08-08T02:03:49.931Z,5.63
2017-08-08T02:06:18.333Z,6.10
2017-08-08T02:08:46.741Z,5.80
2017-08-08T02:11:15.259Z,6.07
2017-08-08T02:13:43.683Z,6.10
2017-08-08T02:16:12.884Z,5.80
2017-08-08T02:18:42.780Z,5.73
2017-08-08T02:21:11.614Z,6.67
2017-08-08T02:23:40.413Z,5.70
2017-08-08T02:26:09.364Z,6.03
2017-08-08T02:28:38.611Z,5.40
2017-08-08T02:31:07.426Z,5.40
2017-08-08T02:33:35.795Z,5.83
2017-08-08T02:36:04.179Z,5.17
2017-08-08T02:38:32.575Z,5.70
2017-08-08T02:41:00.948Z,5.40
2017-08-08T02:43:29.398Z,5.50
2017-08-08T02:45:58.067Z,4.70
2017-08-08T02:48:27.482Z,5.70
2017-08-08T02:50:55.890Z,6.37
2017-08-08T02:53:24.286Z,6.77
2017-08-08T02:55:52.625Z,5.13
2017-08-08T02:58:21.029Z,5.57
2017-08-08T03:00:49.408Z,5.80
2017-08-08T03:03:17.778Z,5.90
2017-08-08T03:05:47.932Z,5.67
2017-08-08T03:08:17.257Z,6.17
2017-08-08T03:10:45.700Z,5.80
2017-08-08T03:13:15.312Z,5.30
2017-08-08T03:15:44.880Z,6.00
2017-08-08T03:18:14.088Z,5.30
2017-08-08T03:20:42.611Z,5.77
2017-08-08T03:23:11.213Z,5.90
2017-08-08T03:25:41.576Z,6.03
2017-08-08T03:28:10.408Z,5.30
2017-08-08T03:30:39.222Z,5.97
2017-08-08T03:33:07.638Z,6.23
2017-08-08T03:35:36.319Z,5.90
2017-08-08T03:38:04.952Z,5.47
2017-08-08T03:40:33.326Z,6.40
2017-08-08T03:43:01.720Z,6.50
2017-08-08T03:45:30.657Z,5.77
2017-08-08T03:47:59.056Z,6.07
2017-08-08T03:50:28.171Z,5.43
2017-08-08T03:52:56.945Z,5.43
2017-08-08T03:55:25.325Z,6.10
2017-08-08T03:57:54.523Z,5.50
2017-08-08T04:00:23.962Z,5.87
2017-08-08T04:02:52.559Z,5.80
2017-08-08T04:05:21.173Z,6.57
2017-08-08T04:07:49.538Z,5.63
2017-08-08T04:10:17.920Z,5.27
2017-08-08T04:12:46.341Z,5.33
2017-08-08T04:15:14.821Z,6.37
2017-08-08T04:17:43.431Z,6.50
2017-08-08T04:20:11.864Z,5.60
2017-08-08T04:22:41.001Z,6.57
2017-08-08T04:25:09.340Z,5.93
2017-08-08T04:27:38.600Z,5.40
2017-08-08T04:30:06.989Z,5.90
2017-08-08T04:32:37.139Z,4.90
2017-08-08T04:35:06.390Z,6.10
2017-08-08T04:37:34.764Z,6.00
2017-08-08T04:40:03.153Z,5.47
2017-08-08T04:42:32.205Z,5.03
2017-08-08T04:45:00.618Z,6.13
2017-08-08T04:47:29.122Z,5.90
2017-08-08T04:49:57.971Z,6.00
2017-08-08T04:52:26.361Z,5.40
2017-08-08T04:54:54.951Z,5.90
2017-08-08T04:57:23.787Z,5.17
2017-08-08T04:59:53.315Z,4.60
2017-08-08T05:02:21.664Z,5.23
2017-08-08T05:04:50.080Z,5.90
2017-08-08T05:07:18.702Z,6.03
2017-08-08T05:09:47.123Z,5.77
2017-08-08T05:12:16.415Z,5.20
2017-08-08T05:14:45.624Z,5.07
2017-08-08T05:17:18.915Z,4.97
2017-08-08T05:19:49.031Z,5.00
2017-08-08T05:22:17.676Z,5.23
2017-08-08T05:24:46.446Z,5.60
2017-08-08T05:27:15.272Z,5.87
2017-08-08T05:29:45.267Z,5.50
2017-08-08T05:32:14.207Z,5.60
2017-08-08T05:34:44.322Z,4.83
2017-08-08T05:37:12.712Z,5.80
2017-08-08T05:39:41.174Z,5.50
2017-08-08T05:42:09.769Z,5.97
2017-08-08T05:44:38.167Z,6.27
2017-08-08T05:47:06.554Z,5.30
2017-08-08T05:49:34.959Z,6.03
2017-08-08T05:52:03.319Z,5.60
2017-08-08T05:54:33.016Z,6.37
2017-08-08T05:57:02.321Z,6.53
2017-08-08T05:59:31.796Z,7.07
2017-08-08T06:02:00.500Z,6.10
2017-08-08T06:04:39.228Z,6.13
2017-08-08T06:07:07.615Z,6.00
2017-08-08T06:09:35.991Z,4.97
2017-08-08T06:12:04.641Z,5.27
2017-08-08T06:14:38.273Z,5.30
2017-08-08T06:17:11.690Z,6.07
2017-08-08T06:19:41.605Z,5.83
2017-08-08T06:22:09.940Z,5.43
2017-08-08T06:24:38.517Z,6.33
2017-08-08T06:27:06.932Z,4.90
2017-08-08T06:29:35.288Z,5.73
2017-08-08T06:32:03.710Z,5.03
2017-08-08T06:34:32.059Z,4.60
2017-08-08T06:37:09.980Z,4.67
2017-08-08T06:39:39.185Z,5.20
2017-08-08T06:42:07.557Z,5.97
2017-08-08T06:44:35.895Z,4.60
2017-08-08T06:47:04.358Z,4.70
2017-08-08T06:49:33.618Z,4.30
2017-08-08T06:52:02.008Z,5.40
2017-08-08T06:54:30.413Z,4.60
2017-08-08T06:56:59.511Z,5.73
2017-08-08T06:59:29.410Z,4.80
2017-08-08T07:02:00.403Z,5.60
2017-08-08T07:04:28.803Z,5.23
2017-08-08T07:06:57.265Z,5.10
2017-08-08T07:09:25.721Z,5.50
2017-08-08T07:11:54.535Z,5.33
2017-08-08T07:14:23.246Z,4.50
2017-08-08T07:16:52.154Z,4.73
2017-08-08T07:19:21.872Z,5.43
2017-08-08T07:21:50.236Z,5.50
2017-08-08T07:24:18.638Z,4.73
2017-08-08T07:26:47.153Z,5.30
2017-08-08T07:29:15.607Z,4.90
2017-08-08T07:31:44.323Z,5.13
2017-08-08T07:34:12.848Z,4.90
2017-08-08T07:36:41.665Z,4.67
2017-08-08T07:39:11.336Z,4.53
2017-08-08T07:41:40.573Z,4.83
2017-08-08T07:44:11.559Z,5.10
2017-08-08T07:46:40.000Z,5.10
2017-08-08T07:49:08.812Z,4.57
2017-08-08T07:51:37.239Z,5.63
2017-08-08T07:54:06.393Z,6.27
2017-08-08T07:56:34.810Z,5.47
2017-08-08T07:59:04.035Z,5.43
2017-08-08T08:01:32.434Z,5.30
2017-08-08T08:04:00.846Z,5.00
2017-08-08T08:06:29.262Z,5.23
2017-08-08T08:08:57.680Z,5.40
2017-08-08T08:11:26.140Z,5.00
2017-08-08T08:13:55.724Z,5.70
2017-08-08T08:16:24.317Z,5.53
2017-08-08T08:18:53.014Z,4.97
2017-08-08T08:21:21.676Z,5.07
2017-08-08T08:23:50.093Z,4.70
2017-08-08T08:26:18.467Z,6.37
2017-08-08T08:28:48.687Z,4.57
2017-08-08T08:31:18.035Z,4.97
2017-08-08T08:33:47.900Z,5.10
2017-08-08T08:36:16.662Z,5.10
2017-08-08T08:38:45.330Z,4.33
2017-08-08T08:41:13.769Z,5.30
2017-08-08T08:43:42.334Z,5.00
2017-08-08T08:46:12.643Z,4.10
2017-08-08T08:48:41.017Z,4.90
2017-08-08T08:51:09.593Z,5.07
2017-08-08T08:53:40.845Z,4.70
2017-08-08T08:56:09.262Z,5.30
2017-08-08T08:58:37.684Z,5.50
2017-08-08T09:01:06.091Z,5.20
2017-08-08T09:03:34.606Z,6.03
2017-08-08T09:06:02.952Z,4.60
2017-08-08T09:08:32.133Z,5.10
2017-08-08T09:11:00.535Z,5.00
2017-08-08T09:13:29.160Z,5.37
2017-08-08T09:15:57.561Z,5.57
2017-08-08T09:18:27.019Z,4.33
2017-08-08T09:20:55.424Z,5.30
2017-08-08T09:23:24.060Z,5.77
2017-08-08T09:25:52.796Z,5.17
2017-08-08T09:28:21.386Z,4.87
2017-08-08T09:30:50.603Z,5.50
2017-08-08T09:33:19.067Z,5.37
2017-08-08T09:35:48.388Z,5.40
2017-08-08T09:38:18.150Z,5.33
2017-08-08T09:40:46.573Z,5.40
2017-08-08T09:43:14.997Z,5.00
2017-08-08T09:45:43.411Z,4.80
2017-08-08T09:48:12.643Z,5.57
2017-08-08T09:50:41.044Z,6.57
2017-08-08T09:53:09.460Z,5.50
2017-08-08T09:55:39.600Z,5.90
2017-08-08T09:58:08.992Z,5.70
2017-08-08T10:00:38.119Z,5.60
2017-08-08T10:03:07.994Z,4.50
2017-08-08T10:05:36.398Z,5.40
2017-08-08T10:08:04.751Z,4.73
2017-08-08T10:10:33.123Z,5.30
2017-08-08T10:13:01.600Z,5.77
2017-08-08T10:15:29.998Z,5.10
2017-08-08T10:17:59.404Z,4.73
2017-08-08T10:20:27.833Z,5.30
2017-08-08T10:22:56.190Z,4.73
2017-08-08T10:25:24.663Z,5.97
2017-08-08T10:27:53.125Z,6.30
2017-08-08T10:30:21.528Z,6.37
2017-08-08T10:32:50.037Z,5.50
2017-08-08T10:35:18.521Z,6.33
2017-08-08T10:37:47.593Z,5.70
2017-08-08T10:40:17.631Z,5.40
2017-08-08T10:42:46.007Z,6.10
2017-08-08T10:45:14.387Z,5.50
2017-08-08T10:47:42.756Z,6.57
2017-08-08T10:50:11.144Z,6.20
2017-08-08T10:52:40.118Z,7.40
2017-08-08T10:55:08.856Z,6.63
2017-08-08T10:57:37.265Z,7.00
2017-08-08T11:00:05.662Z,6.67
2017-08-08T11:02:34.024Z,7.30
2017-08-08T11:05:02.499Z,7.13
2017-08-08T11:07:31.220Z,5.70
2017-08-08T11:09:59.657Z,6.80
2017-08-08T11:12:28.111Z,6.93
2017-08-08T11:14:57.199Z,7.20
2017-08-08T11:17:27.392Z,8.60
2017-08-08T11:19:57.325Z,8.73
2017-08-08T11:22:25.668Z,8.97
2017-08-08T11:24:54.111Z,9.17
2017-08-08T11:27:22.529Z,9.20
2017-08-08T11:29:50.995Z,10.30
2017-08-08T11:32:21.293Z,9.60
2017-08-08T11:34:49.700Z,10.63
2017-08-08T11:37:18.157Z,8.93
2017-08-08T11:39:46.540Z,9.43
2017-08-08T11:42:15.127Z,10.10
2017-08-08T11:44:44.419Z,10.17
2017-08-08T11:47:12.776Z,10.00
2017-08-08T11:49:41.982Z,9.20
2017-08-08T11:52:11.202Z,10.30
2017-08-08T11:54:39.629Z,9.30
2017-08-08T11:57:08.302Z,9.30
2017-08-08T11:59:36.709Z,11.60
2017-08-08T12:02:05.836Z,9.73
2017-08-08T12:04:35.206Z,11.77
2017-08-08T12:07:03.559Z,11.17
2017-08-08T12:09:32.833Z,9.70
2017-08-08T12:12:01.400Z,10.00
2017-08-08T12:14:30.677Z,10.03
2017-08-08T12:16:59.788Z,8.80
2017-08-08T12:19:29.684Z,9.70
2017-08-08T12:22:00.276Z,8.10
2017-08-08T12:24:31.765Z,9.20
2017-08-08T12:27:00.629Z,9.33
2017-08-08T12:29:31.198Z,10.40
2017-08-08T12:31:59.609Z,12.10
2017-08-08T12:34:28.233Z,11.87
2017-08-08T12:36:56.975Z,12.40
2017-08-08T12:39:26.839Z,12.17
2017-08-08T12:41:55.461Z,11.67
2017-08-08T12:44:23.877Z,11.70
2017-08-08T12:46:52.231Z,11.80
2017-08-08T12:49:20.613Z,12.30
2017-08-08T12:51:48.978Z,13.20
2017-08-08T12:54:19.711Z,13.30
2017-08-08T12:56:48.093Z,12.17
2017-08-08T12:59:16.999Z,11.30
2017-08-08T13:01:45.384Z,11.53
2017-08-08T13:04:14.620Z,12.07
2017-08-08T13:06:43.074Z,9.00
2017-08-08T13:09:11.723Z,11.70
2017-08-08T13:11:40.408Z,10.17
2017-08-08T13:14:08.918Z,11.67
2017-08-08T13:16:37.333Z,9.73
2017-08-08T13:19:05.696Z,9.73
2017-08-08T13:21:34.926Z,8.90
2017-08-08T13:24:03.430Z,8.03
2017-08-08T13:26:32.300Z,8.57
2017-08-08T13:29:01.656Z,7.43
2017-08-08T13:31:30.941Z,7.73
2017-08-08T13:34:00.139Z,8.13
2017-08-08T13:36:31.026Z,8.33
2017-08-08T13:38:59.454Z,9.13
2017-08-08T13:41:27.868Z,8.83
2017-08-08T13:43:57.072Z,8.07
2017-08-08T13:46:25.437Z,8.90
2017-08-08T13:48:54.577Z,8.37
2017-08-08T13:51:23.083Z,8.47
2017-08-08T13:53:56.356Z,7.07
2017-08-08T13:56:31.302Z,8.17
2017-08-08T13:59:00.198Z,8.03
2017-08-08T14:01:28.598Z,8.70
2017-08-08T14:03:57.777Z,8.83
2017-08-08T14:06:26.153Z,7.83
2017-08-08T14:08:54.530Z,7.53
2017-08-08T14:11:22.940Z,8.00
2017-08-08T14:13:52.062Z,8.27
2017-08-08T14:16:20.502Z,7.90
2017-08-08T14:18:48.894Z,7.13
2017-08-08T14:21:17.248Z,7.90
2017-08-08T14:23:45.645Z,6.37
2017-08-08T14:26:14.822Z,6.67
2017-08-08T14:28:43.205Z,8.37
2017-08-08T14:31:11.620Z,7.80
2017-08-08T14:33:39.982Z,8.10
2017-08-08T14:36:09.177Z,7.73
2017-08-08T14:38:40.178Z,6.90
2017-08-08T14:41:08.512Z,8.40
2017-08-08T14:43:36.849Z,9.10
2017-08-08T14:46:05.230Z,9.47
2017-08-08T14:48:33.572Z,9.67
2017-08-08T14:51:01.995Z,8.90
2017-08-08T14:53:30.358Z,10.10
2017-08-08T14:55:58.702Z,10.63
2017-08-08T14:58:27.852Z,8.90
2017-08-08T15:00:56.233Z,9.70
2017-08-08T15:03:24.643Z,9.47
2017-08-08T15:05:52.996Z,9.57
2017-08-08T15:08:21.383Z,8.23
2017-08-08T15:10:49.743Z,8.27
2017-08-08T15:13:18.091Z,8.10
2017-08-08T15:15:46.624Z,6.90
2017-08-08T15:18:14.977Z,6.87
2017-08-08T15:20:46.119Z,6.90
2017-08-08T15:23:15.238Z,6.80
2017-08-08T15:25:43.589Z,7.53
2017-08-08T15:28:11.987Z,7.20
2017-08-08T15:30:40.375Z,7.33
2017-08-08T15:33:08.782Z,7.40
2017-08-08T15:35:37.136Z,7.03
2017-08-08T15:38:05.490Z,6.17
2017-08-08T15:40:33.924Z,7.70
2017-08-08T15:43:02.292Z,6.13
2017-08-08T15:45:30.792Z,5.00
2017-08-08T15:47:59.172Z,5.27
2017-08-08T15:50:27.547Z,5.70
2017-08-08T15:52:55.949Z,5.07
2017-08-08T15:55:24.373Z,4.70
2017-08-08T15:57:52.806Z,5.53
2017-08-08T16:00:22.040Z,5.00
2017-08-08T16:02:50.471Z,5.07
2017-08-08T16:05:18.844Z,5.77
2017-08-08T16:07:48.134Z,5.23
2017-08-08T16:10:16.530Z,6.37
2017-08-08T16:12:44.883Z,5.67
2017-08-08T16:15:13.217Z,5.90
2017-08-08T16:17:42.370Z,5.50
2017-08-08T16:20:10.722Z,4.57
2017-08-08T16:22:39.093Z,4.37
2017-08-08T16:25:07.429Z,4.80
2017-08-08T16:27:35.842Z,4.00
2017-08-08T16:30:04.215Z,3.90
2017-08-08T16:32:32.560Z,4.37
2017-08-08T16:35:00.972Z,4.80
2017-08-08T16:37:29.454Z,5.17
2017-08-08T16:39:58.115Z,5.23
2017-08-08T16:42:26.574Z,5.00
2017-08-08T16:44:54.961Z,4.70
2017-08-08T16:47:23.639Z,4.33
2017-08-08T16:49:53.145Z,4.47
2017-08-08T16:52:21.500Z,4.43
2017-08-08T16:54:49.834Z,5.57
2017-08-08T16:57:18.227Z,5.23
2017-08-08T16:59:46.596Z,5.47
2017-08-08T17:02:15.000Z,4.43
2017-08-08T17:04:43.365Z,4.60
2017-08-08T17:07:11.753Z,4.13
2017-08-08T17:09:40.256Z,4.30
2017-08-08T17:12:09.152Z,4.97
2017-08-08T17:14:37.549Z,3.70
2017-08-08T17:17:05.905Z,3.80
2017-08-08T17:19:34.306Z,4.27
2017-08-08T17:22:03.683Z,4.07
2017-08-08T17:24:33.472Z,4.83
2017-08-08T17:27:03.046Z,4.07
2017-08-08T17:29:33.310Z,4.03
2017-08-08T17:32:04.366Z,4.27
2017-08-08T17:34:46.601Z,4.87
2017-08-08T17:37:17.105Z,5.33
2017-08-08T17:39:47.703Z,4.67
2017-08-08T17:42:17.888Z,3.87
2017-08-08T17:44:46.557Z,3.80
2017-08-08T17:47:15.849Z,3.87
2017-08-08T17:49:44.518Z,3.90
2017-08-08T17:52:13.984Z,4.00
2017-08-08T17:54:42.339Z,4.20
2017-08-08T17:57:10.682Z,3.50
2017-08-08T17:59:39.127Z,3.37
2017-08-08T18:02:07.456Z,2.80
2017-08-08T18:04:36.603Z,3.20
2017-08-08T18:07:04.945Z,2.70
2017-08-08T18:09:33.331Z,2.60
2017-08-08T18:12:01.731Z,2.40
2017-08-08T18:14:30.288Z,2.37
2017-08-08T18:16:58.631Z,2.73
2017-08-08T18:19:27.002Z,3.10
2017-08-08T18:21:55.337Z,3.20
2017-08-08T18:24:23.716Z,2.87
2017-08-08T18:26:52.073Z,2.40
2017-08-08T18:29:21.223Z,2.17
2017-08-08T18:31:49.549Z,2.20
2017-08-08T18:34:18.903Z,2.33
2017-08-08T18:36:47.289Z,2.40
2017-08-08T18:39:15.654Z,2.70
2017-08-08T18:41:44.035Z,2.30
2017-08-08T18:44:12.411Z,2.57
2017-08-08T18:46:40.814Z,2.50
2017-08-08T18:49:09.174Z,2.73
2017-08-08T18:51:37.651Z,2.53
2017-08-08T18:54:06.435Z,2.80
2017-08-08T18:56:34.879Z,2.67
2017-08-08T18:59:03.238Z,2.87
2017-08-08T19:01:31.592Z,2.50
2017-08-08T19:04:02.179Z,2.63
2017-08-08T19:06:30.575Z,1.63
2017-08-08T19:08:58.961Z,2.40
2017-08-08T19:11:27.307Z,2.60
2017-08-08T19:13:55.660Z,2.73
2017-08-08T19:16:24.034Z,2.43
2017-08-08T19:18:52.466Z,2.40
2017-08-08T19:21:20.842Z,2.40
2017-08-08T19:23:49.178Z,2.43
2017-08-08T19:26:17.597Z,2.00
2017-08-08T19:28:45.958Z,2.87
2017-08-08T19:31:14.362Z,2.93
2017-08-08T19:33:43.479Z,2.23
2017-08-08T19:36:12.344Z,1.90
2017-08-08T19:38:40.762Z,2.37
2017-08-08T19:41:09.568Z,2.70
2017-08-08T19:43:37.904Z,2.60
2017-08-08T19:46:07.064Z,2.20
2017-08-08T19:48:35.416Z,2.40
2017-08-08T19:51:03.796Z,2.47
2017-08-08T19:53:32.179Z,3.03
2017-08-08T19:56:00.720Z,2.70
2017-08-08T19:58:29.101Z,2.20
2017-08-08T20:00:57.436Z,2.17
2017-08-08T20:03:25.793Z,2.73
2017-08-08T20:05:54.168Z,3.03
2017-08-08T20:08:22.523Z,2.13
2017-08-08T20:10:50.903Z,2.20
2017-08-08T20:13:19.275Z,1.97
2017-08-08T20:15:47.650Z,2.50
2017-08-08T20:18:16.025Z,1.70
2017-08-08T20:20:44.416Z,2.77
2017-08-08T20:23:12.761Z,2.60
2017-08-08T20:25:41.187Z,2.30
2017-08-08T20:28:10.535Z,2.27
2017-08-08T20:30:38.921Z,2.80
2017-08-08T20:33:07.396Z,2.57
2017-08-08T20:35:35.733Z,2.30
2017-08-08T20:38:04.068Z,2.80
2017-08-08T20:40:32.512Z,2.90
2017-08-08T20:43:00.897Z,3.10
2017-08-08T20:45:29.229Z,3.53
2017-08-08T20:47:57.603Z,3.57
2017-08-08T20:50:26.807Z,3.20
2017-08-08T20:52:55.151Z,4.03
2017-08-08T20:55:23.539Z,2.80
2017-08-08T20:57:51.953Z,3.30
2017-08-08T21:00:20.328Z,3.57
2017-08-08T21:02:48.729Z,3.17
2017-08-08T21:05:17.133Z,3.13
2017-08-08T21:07:47.076Z,2.87
2017-08-08T21:10:16.123Z,3.33
2017-08-08T21:12:44.590Z,3.20
2017-08-08T21:15:12.929Z,3.80
2017-08-08T21:17:41.316Z,3.03
2017-08-08T21:20:09.645Z,3.50
2017-08-08T21:22:38.019Z,3.60
2017-08-08T21:25:06.382Z,3.90
2017-08-08T21:27:34.779Z,3.70
2017-08-08T21:30:03.120Z,3.53
2017-08-08T21:32:35.039Z,4.17
2017-08-08T21:35:05.233Z,4.60
2017-08-08T21:37:33.633Z,4.50
2017-08-08T21:40:01.976Z,4.63
2017-08-08T21:42:30.308Z,4.60
2017-08-08T21:44:58.703Z,3.90
2017-08-08T21:47:27.083Z,4.20
2017-08-08T21:49:55.543Z,4.23
2017-08-08T21:52:23.892Z,4.10
2017-08-08T21:54:52.291Z,4.30
2017-08-08T21:57:20.638Z,3.90
2017-08-08T21:59:48.992Z,4.80
2017-08-08T22:02:17.387Z,4.47
2017-08-08T22:04:45.754Z,4.80
2017-08-08T22:07:14.182Z,4.63
2017-08-08T22:09:42.590Z,4.53
2017-08-08T22:12:11.014Z,3.80
2017-08-08T22:14:39.953Z,4.20
2017-08-08T22:17:09.886Z,4.87
2017-08-08T22:19:38.226Z,4.60
2017-08-08T22:22:06.615Z,4.50
2017-08-08T22:24:34.943Z,4.60
2017-08-08T22:27:03.276Z,4.87
2017-08-08T22:29:32.428Z,4.17
2017-08-08T22:32:00.752Z,4.50
2017-08-08T22:34:29.843Z,4.80
2017-08-08T22:36:59.015Z,5.33
2017-08-08T22:39:27.336Z,5.17
2017-08-08T22:41:55.717Z,4.30
2017-08-08T22:44:24.057Z,4.77
2017-08-08T22:46:52.431Z,4.77
2017-08-08T22:49:20.849Z,4.60
2017-08-08T22:51:49.269Z,4.23
2017-08-08T22:54:17.665Z,5.10
2017-08-08T22:56:46.948Z,4.37
2017-08-08T22:59:15.353Z,5.37
2017-08-08T23:01:44.434Z,5.10
2017-08-08T23:04:12.782Z,5.00
2017-08-08T23:06:41.448Z,5.13
2017-08-08T23:09:09.840Z,5.10
2017-08-08T23:11:39.130Z,4.77
2017-08-08T23:14:07.473Z,4.60
2017-08-08T23:16:35.891Z,4.90
2017-08-08T23:19:04.249Z,4.50
2017-08-08T23:21:32.643Z,4.30
2017-08-08T23:24:01.014Z,6.20
2017-08-08T23:26:29.347Z,5.33
2017-08-08T23:28:57.717Z,4.90
2017-08-08T23:31:26.091Z,6.47
2017-08-08T23:33:54.508Z,6.90
2017-08-08T23:36:24.186Z,5.67
2017-08-08T23:38:52.552Z,6.03
2017-08-08T23:41:20.959Z,5.27
2017-08-08T23:46:31.270Z,5.90
2017-08-08T23:48:59.667Z,5.67
2017-08-08T23:51:28.217Z,5.23
2017-08-08T23:53:57.322Z,6.23
2017-08-08T23:56:25.660Z,5.77
2017-08-08T23:58:54.045Z,5.60
